sensor_id;sensor_type;location;lat;lon;timestamp;pressure;altitude;pressure_sealevel;temperature;humidity
69153;BME280;56261;51.580;4.578;2023-04-06T00:00:48;101895.56;;;5.20;100.00
69153;BME280;56261;51.580;4.578;2023-04-06T00:03:13;101906.03;;;5.22;100.00
69153;BME280;56261;51.580;4.578;2023-04-06T00:05:39;101904.25;;;5.22;100.00
69153;BME280;56261;51.580;4.578;2023-04-06T00:08:05;101898.22;;;5.20;100.00
69153;BME280;56261;51.580;4.578;2023-04-06T00:10:31;101899.28;;;5.17;100.00
69153;BME280;56261;51.580;4.578;2023-04-06T00:12:58;101882.06;;;5.12;100.00
69153;BME280;56261;51.580;4.578;2023-04-06T00:15:24;101897.50;;;5.05;100.00
69153;BME280;56261;51.580;4.578;2023-04-06T00:17:49;101888.19;;;5.12;100.00
69153;BME280;56261;51.580;4.578;2023-04-06T00:20:15;101878.16;;;5.05;100.00
69153;BME280;56261;51.580;4.578;2023-04-06T00:22:41;101883.56;;;5.03;100.00
69153;BME280;56261;51.580;4.578;2023-04-06T00:25:08;101881.41;;;5.08;100.00
69153;BME280;56261;51.580;4.578;2023-04-06T00:27:35;101879.84;;;5.06;100.00
69153;BME280;56261;51.580;4.578;2023-04-06T00:30:01;101883.13;;;4.96;100.00
69153;BME280;56261;51.580;4.578;2023-04-06T00:32:26;101873.09;;;4.89;100.00
69153;BME280;56261;51.580;4.578;2023-04-06T00:34:52;101879.66;;;4.96;100.00
69153;BME280;56261;51.580;4.578;2023-04-06T00:37:18;101875.22;;;4.96;100.00
69153;BME280;56261;51.580;4.578;2023-04-06T00:39:44;101866.44;;;4.96;100.00
69153;BME280;56261;51.580;4.578;2023-04-06T00:42:13;101865.38;;;4.86;100.00
69153;BME280;56261;51.580;4.578;2023-04-06T00:44:42;101862.97;;;4.83;100.00
69153;BME280;56261;51.580;4.578;2023-04-06T00:47:08;101851.09;;;4.88;100.00
69153;BME280;56261;51.580;4.578;2023-04-06T00:49:33;101849.84;;;4.94;100.00
69153;BME280;56261;51.580;4.578;2023-04-06T00:51:59;101852.25;;;4.84;100.00
69153;BME280;56261;51.580;4.578;2023-04-06T00:54:25;101853.22;;;4.70;100.00
69153;BME280;56261;51.580;4.578;2023-04-06T00:56:51;101847.09;;;4.70;100.00
69153;BME280;56261;51.580;4.578;2023-04-06T00:59:16;101851.75;;;4.79;100.00
69153;BME280;56261;51.580;4.578;2023-04-06T01:01:42;101839.50;;;4.78;100.00
69153;BME280;56261;51.580;4.578;2023-04-06T01:04:07;101844.03;;;4.76;100.00
69153;BME280;56261;51.580;4.578;2023-04-06T01:06:33;101845.63;;;4.78;100.00
69153;BME280;56261;51.580;4.578;2023-04-06T01:08:58;101842.03;;;4.67;100.00
69153;BME280;56261;51.580;4.578;2023-04-06T01:11:24;101834.97;;;4.80;100.00
69153;BME280;56261;51.580;4.578;2023-04-06T01:13:49;101835.16;;;4.77;100.00
69153;BME280;56261;51.580;4.578;2023-04-06T01:16:14;101823.75;;;4.76;100.00
69153;BME280;56261;51.580;4.578;2023-04-06T01:18:40;101827.88;;;4.68;100.00
69153;BME280;56261;51.580;4.578;2023-04-06T01:21:07;101825.22;;;4.68;100.00
69153;BME280;56261;51.580;4.578;2023-04-06T01:23:34;101825.75;;;4.73;100.00
69153;BME280;56261;51.580;4.578;2023-04-06T01:26:00;101813.59;;;4.70;100.00
69153;BME280;56261;51.580;4.578;2023-04-06T01:28:25;101814.22;;;4.74;100.00
69153;BME280;56261;51.580;4.578;2023-04-06T01:30:50;101815.91;;;4.75;100.00
69153;BME280;56261;51.580;4.578;2023-04-06T01:33:16;101817.16;;;4.82;100.00
69153;BME280;56261;51.580;4.578;2023-04-06T01:35:41;101807.31;;;4.84;100.00
69153;BME280;56261;51.580;4.578;2023-04-06T01:38:07;101802.38;;;4.79;100.00
69153;BME280;56261;51.580;4.578;2023-04-06T01:40:32;101806.06;;;4.77;100.00
69153;BME280;56261;51.580;4.578;2023-04-06T01:42:57;101800.69;;;4.78;100.00
69153;BME280;56261;51.580;4.578;2023-04-06T01:45:23;101799.13;;;4.76;100.00
69153;BME280;56261;51.580;4.578;2023-04-06T01:47:48;101792.88;;;4.77;100.00
69153;BME280;56261;51.580;4.578;2023-04-06T01:50:14;101794.25;;;4.83;100.00
69153;BME280;56261;51.580;4.578;2023-04-06T01:52:40;101789.78;;;4.83;100.00
69153;BME280;56261;51.580;4.578;2023-04-06T01:55:06;101795.19;;;4.82;100.00
69153;BME280;56261;51.580;4.578;2023-04-06T01:57:32;101790.63;;;4.84;100.00
69153;BME280;56261;51.580;4.578;2023-04-06T01:59:57;101776.47;;;4.85;100.00
69153;BME280;56261;51.580;4.578;2023-04-06T02:02:22;101777.41;;;4.84;100.00
69153;BME280;56261;51.580;4.578;2023-04-06T02:04:48;101783.22;;;4.89;100.00
69153;BME280;56261;51.580;4.578;2023-04-06T02:07:13;101773.50;;;4.89;100.00
69153;BME280;56261;51.580;4.578;2023-04-06T02:09:39;101779.63;;;4.90;100.00
69153;BME280;56261;51.580;4.578;2023-04-06T02:12:05;101769.56;;;4.95;100.00
69153;BME280;56261;51.580;4.578;2023-04-06T02:14:30;101762.53;;;4.83;100.00
69153;BME280;56261;51.580;4.578;2023-04-06T02:16:56;101744.44;;;4.89;100.00
69153;BME280;56261;51.580;4.578;2023-04-06T02:19:21;101753.53;;;4.85;100.00
69153;BME280;56261;51.580;4.578;2023-04-06T02:21:47;101757.81;;;4.99;100.00
69153;BME280;56261;51.580;4.578;2023-04-06T02:24:12;101748.00;;;4.88;100.00
69153;BME280;56261;51.580;4.578;2023-04-06T02:26:38;101749.66;;;5.02;100.00
69153;BME280;56261;51.580;4.578;2023-04-06T02:29:03;101742.25;;;5.07;100.00
69153;BME280;56261;51.580;4.578;2023-04-06T02:31:29;101745.41;;;5.12;100.00
69153;BME280;56261;51.580;4.578;2023-04-06T02:33:55;101731.53;;;5.09;100.00
69153;BME280;56261;51.580;4.578;2023-04-06T02:36:20;101727.91;;;5.23;100.00
69153;BME280;56261;51.580;4.578;2023-04-06T02:38:45;101730.91;;;5.18;100.00
69153;BME280;56261;51.580;4.578;2023-04-06T02:41:11;101732.00;;;5.27;100.00
69153;BME280;56261;51.580;4.578;2023-04-06T02:43:36;101721.56;;;5.25;100.00
69153;BME280;56261;51.580;4.578;2023-04-06T02:46:02;101724.94;;;5.27;100.00
69153;BME280;56261;51.580;4.578;2023-04-06T02:48:27;101726.25;;;5.33;100.00
69153;BME280;56261;51.580;4.578;2023-04-06T02:50:53;101723.38;;;5.25;100.00
69153;BME280;56261;51.580;4.578;2023-04-06T02:53:18;101714.75;;;5.34;100.00
69153;BME280;56261;51.580;4.578;2023-04-06T02:55:43;101724.34;;;5.35;100.00
69153;BME280;56261;51.580;4.578;2023-04-06T02:58:09;101720.03;;;5.34;100.00
69153;BME280;56261;51.580;4.578;2023-04-06T03:00:34;101719.69;;;5.38;100.00
69153;BME280;56261;51.580;4.578;2023-04-06T03:03:01;101722.19;;;5.40;100.00
69153;BME280;56261;51.580;4.578;2023-04-06T03:05:26;101717.53;;;5.44;100.00
69153;BME280;56261;51.580;4.578;2023-04-06T03:07:52;101721.75;;;5.46;100.00
69153;BME280;56261;51.580;4.578;2023-04-06T03:10:17;101695.88;;;5.38;100.00
69153;BME280;56261;51.580;4.578;2023-04-06T03:12:42;101718.38;;;5.44;100.00
69153;BME280;56261;51.580;4.578;2023-04-06T03:15:08;101716.34;;;5.48;100.00
69153;BME280;56261;51.580;4.578;2023-04-06T03:17:34;101710.69;;;5.41;100.00
69153;BME280;56261;51.580;4.578;2023-04-06T03:20:00;101716.47;;;5.46;100.00
69153;BME280;56261;51.580;4.578;2023-04-06T03:22:25;101711.06;;;5.48;100.00
69153;BME280;56261;51.580;4.578;2023-04-06T03:24:51;101708.41;;;5.48;100.00
69153;BME280;56261;51.580;4.578;2023-04-06T03:27:16;101711.84;;;5.37;100.00
69153;BME280;56261;51.580;4.578;2023-04-06T03:29:42;101703.03;;;5.49;100.00
69153;BME280;56261;51.580;4.578;2023-04-06T03:32:07;101701.22;;;5.50;100.00
69153;BME280;56261;51.580;4.578;2023-04-06T03:34:33;101705.16;;;5.44;100.00
69153;BME280;56261;51.580;4.578;2023-04-06T03:36:58;101703.84;;;5.50;100.00
69153;BME280;56261;51.580;4.578;2023-04-06T03:39:23;101706.22;;;5.41;100.00
69153;BME280;56261;51.580;4.578;2023-04-06T03:41:49;101704.06;;;5.47;100.00
69153;BME280;56261;51.580;4.578;2023-04-06T03:44:14;101705.38;;;5.41;100.00
69153;BME280;56261;51.580;4.578;2023-04-06T03:46:40;101703.56;;;5.41;100.00
69153;BME280;56261;51.580;4.578;2023-04-06T03:49:05;101697.34;;;5.43;100.00
69153;BME280;56261;51.580;4.578;2023-04-06T03:51:31;101694.75;;;5.30;100.00
69153;BME280;56261;51.580;4.578;2023-04-06T03:53:57;101700.09;;;5.41;100.00
69153;BME280;56261;51.580;4.578;2023-04-06T03:56:22;101701.75;;;5.42;100.00
69153;BME280;56261;51.580;4.578;2023-04-06T03:58:47;101705.00;;;5.34;100.00
69153;BME280;56261;51.580;4.578;2023-04-06T04:01:16;101689.72;;;5.38;100.00
69153;BME280;56261;51.580;4.578;2023-04-06T04:03:43;101693.44;;;5.35;100.00
69153;BME280;56261;51.580;4.578;2023-04-06T04:06:08;101692.38;;;5.38;100.00
69153;BME280;56261;51.580;4.578;2023-04-06T04:08:33;101688.06;;;5.37;100.00
69153;BME280;56261;51.580;4.578;2023-04-06T04:11:00;101693.59;;;5.34;100.00
69153;BME280;56261;51.580;4.578;2023-04-06T04:13:26;101693.44;;;5.35;100.00
69153;BME280;56261;51.580;4.578;2023-04-06T04:15:51;101693.59;;;5.34;100.00
69153;BME280;56261;51.580;4.578;2023-04-06T04:18:18;101696.63;;;5.40;100.00
69153;BME280;56261;51.580;4.578;2023-04-06T04:20:43;101691.31;;;5.40;100.00
69153;BME280;56261;51.580;4.578;2023-04-06T04:23:09;101694.06;;;5.39;100.00
69153;BME280;56261;51.580;4.578;2023-04-06T04:25:34;101693.59;;;5.34;100.00
69153;BME280;56261;51.580;4.578;2023-04-06T04:27:59;101687.94;;;5.38;100.00
69153;BME280;56261;51.580;4.578;2023-04-06T04:30:25;101695.16;;;5.36;100.00
69153;BME280;56261;51.580;4.578;2023-04-06T04:32:50;101696.72;;;5.39;100.00
69153;BME280;56261;51.580;4.578;2023-04-06T04:35:16;101700.31;;;5.38;100.00
69153;BME280;56261;51.580;4.578;2023-04-06T04:37:41;101687.41;;;5.33;100.00
69153;BME280;56261;51.580;4.578;2023-04-06T04:40:07;101697.78;;;5.36;100.00
69153;BME280;56261;51.580;4.578;2023-04-06T04:42:33;101694.81;;;5.41;100.00
69153;BME280;56261;51.580;4.578;2023-04-06T04:44:59;101691.66;;;5.36;100.00
69153;BME280;56261;51.580;4.578;2023-04-06T04:47:24;101702.84;;;5.39;100.00
69153;BME280;56261;51.580;4.578;2023-04-06T04:49:50;101698.66;;;5.48;100.00
69153;BME280;56261;51.580;4.578;2023-04-06T04:52:15;101696.25;;;5.45;100.00
69153;BME280;56261;51.580;4.578;2023-04-06T04:54:41;101695.97;;;5.37;100.00
69153;BME280;56261;51.580;4.578;2023-04-06T04:57:06;101695.69;;;5.29;100.00
69153;BME280;56261;51.580;4.578;2023-04-06T04:59:33;101686.28;;;5.49;100.00
69153;BME280;56261;51.580;4.578;2023-04-06T05:01:59;101688.69;;;5.40;100.00
69153;BME280;56261;51.580;4.578;2023-04-06T05:04:25;101701.63;;;5.32;100.00
69153;BME280;56261;51.580;4.578;2023-04-06T05:06:50;101697.66;;;5.38;100.00
69153;BME280;56261;51.580;4.578;2023-04-06T05:09:15;101697.44;;;5.41;100.00
69153;BME280;56261;51.580;4.578;2023-04-06T05:11:42;101700.19;;;5.39;100.00
69153;BME280;56261;51.580;4.578;2023-04-06T05:14:08;101695.53;;;5.43;100.00
69153;BME280;56261;51.580;4.578;2023-04-06T05:16:34;101694.41;;;5.34;100.00
69153;BME280;56261;51.580;4.578;2023-04-06T05:18:59;101691.63;;;5.25;100.00
69153;BME280;56261;51.580;4.578;2023-04-06T05:21:25;101688.69;;;5.40;100.00
69153;BME280;56261;51.580;4.578;2023-04-06T05:23:52;101671.44;;;5.35;100.00
69153;BME280;56261;51.580;4.578;2023-04-06T05:26:19;101687.94;;;5.38;100.00
69153;BME280;56261;51.580;4.578;2023-04-06T05:28:44;101692.53;;;5.48;100.00
69153;BME280;56261;51.580;4.578;2023-04-06T05:31:11;101685.53;;;5.47;100.00
69153;BME280;56261;51.580;4.578;2023-04-06T05:33:36;101675.34;;;5.53;100.00
69153;BME280;56261;51.580;4.578;2023-04-06T05:36:02;101682.69;;;5.50;100.00
69153;BME280;56261;51.580;4.578;2023-04-06T05:38:28;101683.25;;;5.42;100.00
69153;BME280;56261;51.580;4.578;2023-04-06T05:40:54;101679.22;;;5.49;100.00
69153;BME280;56261;51.580;4.578;2023-04-06T05:43:19;101675.22;;;5.55;100.00
69153;BME280;56261;51.580;4.578;2023-04-06T05:45:45;101661.41;;;5.62;100.00
69153;BME280;56261;51.580;4.578;2023-04-06T05:48:10;101660.72;;;5.72;100.00
69153;BME280;56261;51.580;4.578;2023-04-06T05:50:36;101672.97;;;5.61;100.00
69153;BME280;56261;51.580;4.578;2023-04-06T05:53:01;101672.53;;;5.79;100.00
69153;BME280;56261;51.580;4.578;2023-04-06T05:55:26;101673.47;;;5.89;100.00
69153;BME280;56261;51.580;4.578;2023-04-06T05:57:53;101685.06;;;5.88;100.00
69153;BME280;56261;51.580;4.578;2023-04-06T06:00:18;101674.03;;;6.06;100.00
69153;BME280;56261;51.580;4.578;2023-04-06T06:02:44;101676.53;;;6.07;100.00
69153;BME280;56261;51.580;4.578;2023-04-06T06:05:10;101666.47;;;6.12;100.00
69153;BME280;56261;51.580;4.578;2023-04-06T06:07:36;101677.28;;;6.20;100.00
69153;BME280;56261;51.580;4.578;2023-04-06T06:10:02;101673.06;;;6.29;100.00
69153;BME280;56261;51.580;4.578;2023-04-06T06:12:27;101662.09;;;6.34;100.00
69153;BME280;56261;51.580;4.578;2023-04-06T06:14:53;101668.00;;;6.37;100.00
69153;BME280;56261;51.580;4.578;2023-04-06T06:17:18;101668.13;;;6.36;100.00
69153;BME280;56261;51.580;4.578;2023-04-06T06:19:44;101659.56;;;6.43;100.00
69153;BME280;56261;51.580;4.578;2023-04-06T06:22:10;101658.00;;;6.41;100.00
69153;BME280;56261;51.580;4.578;2023-04-06T06:24:35;101665.59;;;6.46;100.00
69153;BME280;56261;51.580;4.578;2023-04-06T06:27:00;101660.28;;;6.57;100.00
69153;BME280;56261;51.580;4.578;2023-04-06T06:29:26;101670.13;;;6.66;100.00
69153;BME280;56261;51.580;4.578;2023-04-06T06:31:51;101668.56;;;6.75;100.00
69153;BME280;56261;51.580;4.578;2023-04-06T06:34:17;101665.72;;;6.88;100.00
69153;BME280;56261;51.580;4.578;2023-04-06T06:36:42;101669.19;;;6.99;100.00
69153;BME280;56261;51.580;4.578;2023-04-06T06:39:09;101672.03;;;7.07;100.00
69153;BME280;56261;51.580;4.578;2023-04-06T06:41:34;101667.22;;;7.13;100.00
69153;BME280;56261;51.580;4.578;2023-04-06T06:44:00;101669.81;;;7.24;100.00
69153;BME280;56261;51.580;4.578;2023-04-06T06:46:26;101668.22;;;7.33;100.00
69153;BME280;56261;51.580;4.578;2023-04-06T06:48:51;101668.16;;;7.44;100.00
69153;BME280;56261;51.580;4.578;2023-04-06T06:51:17;101666.16;;;7.57;100.00
69153;BME280;56261;51.580;4.578;2023-04-06T06:53:42;101669.25;;;7.62;100.00
69153;BME280;56261;51.580;4.578;2023-04-06T06:56:08;101664.72;;;7.53;100.00
69153;BME280;56261;51.580;4.578;2023-04-06T06:58:33;101666.34;;;7.65;100.00
69153;BME280;56261;51.580;4.578;2023-04-06T07:00:58;101662.59;;;7.68;100.00
69153;BME280;56261;51.580;4.578;2023-04-06T07:03:24;101664.94;;;7.61;100.00
69153;BME280;56261;51.580;4.578;2023-04-06T07:05:50;101661.09;;;7.75;100.00
69153;BME280;56261;51.580;4.578;2023-04-06T07:08:20;101670.97;;;7.94;100.00
69153;BME280;56261;51.580;4.578;2023-04-06T07:10:45;101660.94;;;7.77;100.00
69153;BME280;56261;51.580;4.578;2023-04-06T07:13:11;101654.81;;;7.76;100.00
69153;BME280;56261;51.580;4.578;2023-04-06T07:15:37;101654.09;;;7.74;100.00
69153;BME280;56261;51.580;4.578;2023-04-06T07:18:03;101657.13;;;7.69;100.00
69153;BME280;56261;51.580;4.578;2023-04-06T07:20:28;101645.50;;;7.82;100.00
69153;BME280;56261;51.580;4.578;2023-04-06T07:22:54;101659.28;;;7.76;100.00
69153;BME280;56261;51.580;4.578;2023-04-06T07:25:19;101648.25;;;7.80;100.00
69153;BME280;56261;51.580;4.578;2023-04-06T07:27:45;101645.91;;;7.87;100.00
69153;BME280;56261;51.580;4.578;2023-04-06T07:30:10;101649.59;;;7.96;100.00
69153;BME280;56261;51.580;4.578;2023-04-06T07:32:36;101648.84;;;7.84;100.00
69153;BME280;56261;51.580;4.578;2023-04-06T07:35:02;101644.38;;;7.84;100.00
69153;BME280;56261;51.580;4.578;2023-04-06T07:37:28;101658.16;;;7.99;100.00
69153;BME280;56261;51.580;4.578;2023-04-06T07:39:53;101653.56;;;7.80;100.00
69153;BME280;56261;51.580;4.578;2023-04-06T07:42:18;101650.00;;;7.91;100.00
69153;BME280;56261;51.580;4.578;2023-04-06T07:44:44;101650.31;;;7.98;100.00
69153;BME280;56261;51.580;4.578;2023-04-06T07:47:10;101653.63;;;7.90;100.00
69153;BME280;56261;51.580;4.578;2023-04-06T07:49:35;101650.31;;;7.98;100.00
69153;BME280;56261;51.580;4.578;2023-04-06T07:52:01;101645.16;;;8.06;100.00
69153;BME280;56261;51.580;4.578;2023-04-06T07:54:28;101650.22;;;8.09;100.00
69153;BME280;56261;51.580;4.578;2023-04-06T07:56:53;101651.38;;;8.16;100.00
69153;BME280;56261;51.580;4.578;2023-04-06T07:59:19;101642.50;;;8.06;100.00
69153;BME280;56261;51.580;4.578;2023-04-06T08:01:44;101646.94;;;7.96;100.00
69153;BME280;56261;51.580;4.578;2023-04-06T08:04:09;101633.78;;;7.94;100.00
69153;BME280;56261;51.580;4.578;2023-04-06T08:06:35;101633.34;;;7.89;100.00
69153;BME280;56261;51.580;4.578;2023-04-06T08:09:01;101639.00;;;7.75;100.00
69153;BME280;56261;51.580;4.578;2023-04-06T08:11:27;101638.69;;;7.99;100.00
69153;BME280;56261;51.580;4.578;2023-04-06T08:13:53;101634.84;;;8.13;100.00
69153;BME280;56261;51.580;4.578;2023-04-06T08:16:18;101636.97;;;7.88;100.00
69153;BME280;56261;51.580;4.578;2023-04-06T08:18:44;101634.72;;;7.83;100.00
69153;BME280;56261;51.580;4.578;2023-04-06T08:21:10;101631.22;;;7.83;100.00
69153;BME280;56261;51.580;4.578;2023-04-06T08:23:35;101626.75;;;7.83;100.00
69153;BME280;56261;51.580;4.578;2023-04-06T08:26:01;101635.31;;;7.87;100.00
69153;BME280;56261;51.580;4.578;2023-04-06T08:28:26;101634.09;;;8.01;100.00
69153;BME280;56261;51.580;4.578;2023-04-06T08:30:51;101636.22;;;8.07;100.00
69153;BME280;56261;51.580;4.578;2023-04-06T08:33:17;101635.50;;;7.95;100.00
69153;BME280;56261;51.580;4.578;2023-04-06T08:35:42;101633.63;;;7.86;100.00
69153;BME280;56261;51.580;4.578;2023-04-06T08:38:08;101626.00;;;8.02;100.00
69153;BME280;56261;51.580;4.578;2023-04-06T08:40:37;101638.69;;;7.99;100.00
69153;BME280;56261;51.580;4.578;2023-04-06T08:43:06;101639.00;;;8.05;100.00
69153;BME280;56261;51.580;4.578;2023-04-06T08:45:34;101629.72;;;7.90;100.00
69153;BME280;56261;51.580;4.578;2023-04-06T08:48:00;101632.97;;;8.03;100.00
69153;BME280;56261;51.580;4.578;2023-04-06T08:50:28;101629.47;;;7.93;100.00
69153;BME280;56261;51.580;4.578;2023-04-06T08:52:55;101622.25;;;8.05;100.00
69153;BME280;56261;51.580;4.578;2023-04-06T08:55:21;101633.84;;;8.04;100.00
69153;BME280;56261;51.580;4.578;2023-04-06T08:57:48;101621.25;;;8.06;100.00
69153;BME280;56261;51.580;4.578;2023-04-06T09:00:14;101622.97;;;8.17;100.00
69153;BME280;56261;51.580;4.578;2023-04-06T09:02:42;101623.22;;;8.04;100.00
69153;BME280;56261;51.580;4.578;2023-04-06T09:05:09;101624.06;;;8.04;100.00
69153;BME280;56261;51.580;4.578;2023-04-06T09:07:37;101621.53;;;8.03;100.00
69153;BME280;56261;51.580;4.578;2023-04-06T09:10:04;101621.25;;;8.06;100.00
69153;BME280;56261;51.580;4.578;2023-04-06T09:12:31;101628.94;;;7.99;100.00
69153;BME280;56261;51.580;4.578;2023-04-06T09:14:57;101630.19;;;7.95;100.00
69153;BME280;56261;51.580;4.578;2023-04-06T09:17:25;101634.41;;;8.07;100.00
69153;BME280;56261;51.580;4.578;2023-04-06T09:19:51;101634.53;;;8.06;100.00
69153;BME280;56261;51.580;4.578;2023-04-06T09:22:17;101627.16;;;8.19;100.00
69153;BME280;56261;51.580;4.578;2023-04-06T09:24:50;101634.47;;;8.27;100.00
69153;BME280;56261;51.580;4.578;2023-04-06T09:27:16;101630.38;;;8.13;100.00
69153;BME280;56261;51.580;4.578;2023-04-06T09:29:42;101627.47;;;8.26;100.00
69153;BME280;56261;51.580;4.578;2023-04-06T09:32:09;101630.13;;;8.26;100.00
69153;BME280;56261;51.580;4.578;2023-04-06T09:34:40;101629.47;;;8.34;100.00
69153;BME280;56261;51.580;4.578;2023-04-06T09:37:27;101631.00;;;8.36;100.00
69153;BME280;56261;51.580;4.578;2023-04-06T09:40:05;101612.81;;;8.31;100.00
69153;BME280;56261;51.580;4.578;2023-04-06T09:42:31;101616.81;;;8.06;100.00
69153;BME280;56261;51.580;4.578;2023-04-06T09:44:57;101615.75;;;8.28;100.00
69153;BME280;56261;51.580;4.578;2023-04-06T09:47:22;101615.41;;;8.12;100.00
69153;BME280;56261;51.580;4.578;2023-04-06T09:49:50;101614.47;;;8.23;100.00
69153;BME280;56261;51.580;4.578;2023-04-06T09:52:19;101626.75;;;8.14;100.00
69153;BME280;56261;51.580;4.578;2023-04-06T09:54:50;101618.53;;;8.17;100.00
69153;BME280;56261;51.580;4.578;2023-04-06T10:00:09;101608.84;;;8.16;100.00
69153;BME280;56261;51.580;4.578;2023-04-06T10:05:17;101611.59;;;8.05;100.00
69153;BME280;56261;51.580;4.578;2023-04-06T10:07:45;101607.72;;;8.09;100.00
69153;BME280;56261;51.580;4.578;2023-04-06T10:10:12;101611.41;;;8.27;100.00
69153;BME280;56261;51.580;4.578;2023-04-06T10:12:39;101607.91;;;8.17;100.00
69153;BME280;56261;51.580;4.578;2023-04-06T10:15:06;101605.84;;;8.30;100.00
69153;BME280;56261;51.580;4.578;2023-04-06T10:17:32;101606.59;;;8.42;100.00
69153;BME280;56261;51.580;4.578;2023-04-06T10:20:09;101597.28;;;8.27;100.00
69153;BME280;56261;51.580;4.578;2023-04-06T10:22:47;101595.66;;;8.45;100.00
69153;BME280;56261;51.580;4.578;2023-04-06T10:25:26;101598.50;;;8.54;100.00
69153;BME280;56261;51.580;4.578;2023-04-06T10:28:16;101591.19;;;8.46;100.00
69153;BME280;56261;51.580;4.578;2023-04-06T10:30:44;101588.06;;;8.31;100.00
69153;BME280;56261;51.580;4.578;2023-04-06T10:33:17;101585.88;;;8.46;100.00
69153;BME280;56261;51.580;4.578;2023-04-06T10:35:43;101586.56;;;8.48;100.00
69153;BME280;56261;51.580;4.578;2023-04-06T10:38:09;101580.28;;;8.59;100.00
69153;BME280;56261;51.580;4.578;2023-04-06T10:40:36;101572.84;;;8.43;100.00
69153;BME280;56261;51.580;4.578;2023-04-06T10:43:19;101579.69;;;8.36;100.00
69153;BME280;56261;51.580;4.578;2023-04-06T10:45:54;101580.03;;;8.11;100.00
69153;BME280;56261;51.580;4.578;2023-04-06T10:48:20;101570.59;;;8.38;100.00
69153;BME280;56261;51.580;4.578;2023-04-06T10:50:54;101574.50;;;8.34;100.00
69153;BME280;56261;51.580;4.578;2023-04-06T10:55:49;101567.41;;;8.44;100.00
69153;BME280;56261;51.580;4.578;2023-04-06T10:58:15;101565.00;;;8.41;100.00
69153;BME280;56261;51.580;4.578;2023-04-06T11:00:45;101559.06;;;8.18;100.00
69153;BME280;56261;51.580;4.578;2023-04-06T11:03:10;101567.75;;;8.10;100.00
69153;BME280;56261;51.580;4.578;2023-04-06T11:05:36;101561.84;;;8.17;100.00
69153;BME280;56261;51.580;4.578;2023-04-06T11:08:01;101561.56;;;8.10;100.00
69153;BME280;56261;51.580;4.578;2023-04-06T11:10:27;101550.63;;;8.03;100.00
69153;BME280;56261;51.580;4.578;2023-04-06T11:12:56;101554.59;;;8.19;100.00
69153;BME280;56261;51.580;4.578;2023-04-06T11:15:22;101541.84;;;8.13;100.00
69153;BME280;56261;51.580;4.578;2023-04-06T11:17:48;101538.81;;;8.27;100.00
69153;BME280;56261;51.580;4.578;2023-04-06T11:20:14;101552.50;;;8.22;100.00
69153;BME280;56261;51.580;4.578;2023-04-06T11:22:52;101533.09;;;8.22;100.00
69153;BME280;56261;51.580;4.578;2023-04-06T11:25:18;101551.94;;;8.19;100.00
69153;BME280;56261;51.580;4.578;2023-04-06T11:27:45;101546.38;;;8.22;100.00
69153;BME280;56261;51.580;4.578;2023-04-06T11:30:12;101544.25;;;8.25;100.00
69153;BME280;56261;51.580;4.578;2023-04-06T11:32:42;101542.59;;;8.34;100.00
69153;BME280;56261;51.580;4.578;2023-04-06T11:35:26;101530.56;;;8.30;100.00
69153;BME280;56261;51.580;4.578;2023-04-06T11:37:51;101539.09;;;8.24;100.00
69153;BME280;56261;51.580;4.578;2023-04-06T11:40:23;101531.25;;;8.22;100.00
69153;BME280;56261;51.580;4.578;2023-04-06T11:42:53;101539.06;;;8.14;100.00
69153;BME280;56261;51.580;4.578;2023-04-06T11:45:19;101531.09;;;8.14;100.00
69153;BME280;56261;51.580;4.578;2023-04-06T11:47:45;101528.31;;;8.16;100.00
69153;BME280;56261;51.580;4.578;2023-04-06T11:50:13;101525.16;;;7.91;100.00
69153;BME280;56261;51.580;4.578;2023-04-06T11:52:40;101521.16;;;8.06;100.00
69153;BME280;56261;51.580;4.578;2023-04-06T11:55:16;101521.72;;;8.10;100.00
69153;BME280;56261;51.580;4.578;2023-04-06T11:57:43;101524.13;;;8.23;100.00
69153;BME280;56261;51.580;4.578;2023-04-06T12:00:09;101528.31;;;8.25;100.00
69153;BME280;56261;51.580;4.578;2023-04-06T12:02:36;101522.56;;;8.10;100.00
69153;BME280;56261;51.580;4.578;2023-04-06T12:05:03;101531.63;;;7.98;100.00
69153;BME280;56261;51.580;4.578;2023-04-06T12:07:29;101528.72;;;8.11;100.00
69153;BME280;56261;51.580;4.578;2023-04-06T12:09:55;101518.63;;;8.15;100.00
69153;BME280;56261;51.580;4.578;2023-04-06T12:12:21;101517.84;;;8.24;100.00
69153;BME280;56261;51.580;4.578;2023-04-06T12:14:46;101509.66;;;8.06;100.00
69153;BME280;56261;51.580;4.578;2023-04-06T12:17:11;101511.09;;;8.10;100.00
69153;BME280;56261;51.580;4.578;2023-04-06T12:19:37;101499.06;;;8.16;100.00
69153;BME280;56261;51.580;4.578;2023-04-06T12:22:02;101503.03;;;8.31;100.00
69153;BME280;56261;51.580;4.578;2023-04-06T12:24:28;101510.84;;;8.23;100.00
69153;BME280;56261;51.580;4.578;2023-04-06T12:26:54;101503.84;;;8.31;100.00
69153;BME280;56261;51.580;4.578;2023-04-06T12:29:19;101509.78;;;7.95;100.00
69153;BME280;56261;51.580;4.578;2023-04-06T12:31:45;101494.72;;;8.05;100.00
69153;BME280;56261;51.580;4.578;2023-04-06T12:34:11;101494.13;;;8.01;100.00
69153;BME280;56261;51.580;4.578;2023-04-06T12:36:37;101492.94;;;8.15;100.00
69153;BME280;56261;51.580;4.578;2023-04-06T12:39:03;101499.34;;;8.13;100.00
69153;BME280;56261;51.580;4.578;2023-04-06T12:41:29;101482.69;;;8.01;100.00
69153;BME280;56261;51.580;4.578;2023-04-06T12:43:55;101487.69;;;7.94;100.00
69153;BME280;56261;51.580;4.578;2023-04-06T12:46:20;101493.00;;;7.84;100.00
69153;BME280;56261;51.580;4.578;2023-04-06T12:48:46;101488.13;;;7.89;100.00
69153;BME280;56261;51.580;4.578;2023-04-06T12:51:12;101482.69;;;8.01;100.00
69153;BME280;56261;51.580;4.578;2023-04-06T12:53:37;101483.09;;;7.86;100.00